createdAt,value
2022-10-17T00:00:39.767Z,41.55
2022-10-17T00:03:41.740Z,52.47
2022-10-17T00:06:43.680Z,42.58
2022-10-17T00:09:45.597Z,37.78
2022-10-17T00:12:50.709Z,40.28
2022-10-17T00:15:52.917Z,35.67
2022-10-17T00:18:55.626Z,34.00
2022-10-17T00:21:57.514Z,30.45
2022-10-17T00:24:59.455Z,28.08
2022-10-17T00:28:01.344Z,32.97
2022-10-17T00:31:05.844Z,32.30
2022-10-17T00:34:07.722Z,32.85
2022-10-17T00:37:09.708Z,37.38
2022-10-17T00:40:12.307Z,35.50
2022-10-17T00:43:18.476Z,40.83
2022-10-17T00:46:22.112Z,36.92
2022-10-17T00:49:26.796Z,35.28
2022-10-17T00:52:31.026Z,38.55
2022-10-17T00:55:37.714Z,36.42
2022-10-17T00:58:39.819Z,45.83
2022-10-17T01:01:47.123Z,38.05
2022-10-17T01:04:55.080Z,42.67
2022-10-17T01:07:57.209Z,37.80
2022-10-17T01:11:13.569Z,37.58
2022-10-17T01:14:21.501Z,38.70
2022-10-17T01:17:45.702Z,34.92
2022-10-17T01:21:16.830Z,39.83
2022-10-17T01:25:16.795Z,37.13
2022-10-17T01:29:05.001Z,36.13
2022-10-17T01:32:40.301Z,32.03
2022-10-17T01:35:52.375Z,39.97
2022-10-17T01:39:20.850Z,40.38
2022-10-17T01:46:21.413Z,41.15
2022-10-17T01:49:27.660Z,37.05
2022-10-17T01:52:51.896Z,36.67
2022-10-17T01:59:13.437Z,44.35
2022-10-17T02:02:17.562Z,40.63
2022-10-17T02:05:24.621Z,40.97
2022-10-17T02:08:28.839Z,46.97
2022-10-17T02:11:30.726Z,43.70
2022-10-17T02:14:45.410Z,47.67
2022-10-17T02:18:00.020Z,50.75
2022-10-17T02:21:09.055Z,52.72
2022-10-17T02:24:32.466Z,41.47
2022-10-17T02:27:53.613Z,47.35
2022-10-17T02:31:00.935Z,47.78
2022-10-17T02:34:17.241Z,38.65
2022-10-17T02:37:25.599Z,44.35
2022-10-17T02:40:29.409Z,38.13
2022-10-17T02:43:31.808Z,41.03
2022-10-17T02:46:35.470Z,38.97
2022-10-17T02:49:42.953Z,46.95
2022-10-17T02:52:58.309Z,43.50
2022-10-17T02:56:05.130Z,36.97
2022-10-17T02:59:09.392Z,38.92
2022-10-17T03:02:11.740Z,37.08
2022-10-17T03:05:19.223Z,40.47
2022-10-17T03:08:21.388Z,41.33
2022-10-17T03:11:23.232Z,38.63
2022-10-17T03:14:25.128Z,31.50
2022-10-17T03:17:26.967Z,35.70
2022-10-17T03:20:29.048Z,37.17
2022-10-17T03:23:30.878Z,34.97
2022-10-17T03:26:32.896Z,35.03
2022-10-17T03:29:34.755Z,37.17
2022-10-17T03:32:36.642Z,37.75
2022-10-17T03:35:40.018Z,36.30
2022-10-17T03:38:42.876Z,40.03
2022-10-17T03:41:44.713Z,35.55
2022-10-17T03:44:46.730Z,34.60
2022-10-17T03:47:48.538Z,33.85
2022-10-17T03:50:50.646Z,39.33
2022-10-17T03:53:52.592Z,30.98
2022-10-17T03:56:54.552Z,35.47
2022-10-17T03:59:56.447Z,35.53
2022-10-17T04:02:58.806Z,34.72
2022-10-17T04:06:01.866Z,32.33
2022-10-17T04:09:05.504Z,34.58
2022-10-17T04:12:07.333Z,32.53
2022-10-17T04:15:10.013Z,31.40
2022-10-17T04:18:11.839Z,32.50
2022-10-17T04:21:14.134Z,33.67
2022-10-17T04:24:16.124Z,31.20
2022-10-17T04:27:17.978Z,28.85
2022-10-17T04:30:19.828Z,35.63
2022-10-17T04:33:21.789Z,32.35
2022-10-17T04:36:23.731Z,30.73
2022-10-17T04:39:25.901Z,36.53
2022-10-17T04:42:29.831Z,41.15
2022-10-17T04:45:31.888Z,37.55
2022-10-17T04:48:33.731Z,32.50
2022-10-17T04:51:35.713Z,33.30
2022-10-17T04:54:37.541Z,29.30
2022-10-17T04:57:39.503Z,38.78
2022-10-17T05:00:41.611Z,31.30
2022-10-17T05:03:44.419Z,34.40
2022-10-17T05:06:46.317Z,34.22
2022-10-17T05:09:48.296Z,31.55
2022-10-17T05:12:51.055Z,31.38
2022-10-17T05:15:53.329Z,30.35
2022-10-17T05:18:57.626Z,26.60
2022-10-17T05:21:59.489Z,36.58
2022-10-17T05:25:01.506Z,31.30
2022-10-17T05:28:03.366Z,31.98
2022-10-17T05:31:06.693Z,51.88
2022-10-17T05:34:11.565Z,72.65
2022-10-17T05:37:15.859Z,67.53
2022-10-17T05:40:17.921Z,48.00
2022-10-17T05:43:19.834Z,45.83
2022-10-17T05:46:21.957Z,74.63
2022-10-17T05:49:33.403Z,57.33
2022-10-17T05:52:47.158Z,60.03
2022-10-17T05:55:59.518Z,57.55
2022-10-17T05:59:01.467Z,50.80
2022-10-17T06:02:03.466Z,55.72
2022-10-17T06:05:05.701Z,55.05
2022-10-17T06:08:07.547Z,62.88
2022-10-17T06:11:10.590Z,67.03
2022-10-17T06:17:16.179Z,56.97
2022-10-17T06:20:18.354Z,64.18
2022-10-17T06:23:20.349Z,63.08
2022-10-17T06:26:22.412Z,55.38
2022-10-17T06:29:24.540Z,65.32
2022-10-17T06:32:27.471Z,78.00
2022-10-17T06:35:29.622Z,58.88
2022-10-17T06:38:31.570Z,64.38
2022-10-17T06:41:33.462Z,63.63
2022-10-17T06:44:35.502Z,69.93
2022-10-17T06:47:37.595Z,75.78
2022-10-17T06:50:39.474Z,65.28
2022-10-17T06:53:41.428Z,57.58
2022-10-17T06:56:43.265Z,64.88
2022-10-17T06:59:45.145Z,49.67
2022-10-17T07:02:47.019Z,51.28
2022-10-17T07:05:53.152Z,35.67
2022-10-17T07:08:55.813Z,42.42
2022-10-17T07:11:58.386Z,35.35
2022-10-17T07:15:00.233Z,31.23
2022-10-17T07:18:02.116Z,41.30
2022-10-17T07:21:04.931Z,47.53
2022-10-17T07:24:07.593Z,36.47
2022-10-17T07:27:09.464Z,33.97
2022-10-17T07:30:11.764Z,41.83
2022-10-17T07:33:13.662Z,33.22
2022-10-17T07:36:15.948Z,40.85
2022-10-17T07:39:17.944Z,34.92
2022-10-17T07:42:19.870Z,35.95
2022-10-17T07:45:23.690Z,37.38
2022-10-17T07:48:26.167Z,32.15
2022-10-17T07:51:29.385Z,33.83
2022-10-17T07:54:31.241Z,35.83
2022-10-17T07:57:33.054Z,34.65
2022-10-17T08:00:35.964Z,35.38
2022-10-17T08:03:37.916Z,31.83
2022-10-17T08:06:39.772Z,36.05
2022-10-17T08:09:41.927Z,32.30
2022-10-17T08:12:43.961Z,35.00
2022-10-17T08:15:47.896Z,32.17
2022-10-17T08:18:50.011Z,36.63
2022-10-17T08:21:52.466Z,35.88
2022-10-17T08:24:54.396Z,30.07
2022-10-17T08:27:56.381Z,29.20
2022-10-17T08:31:07.233Z,32.50
2022-10-17T08:34:09.165Z,34.13
2022-10-17T08:37:13.884Z,26.67
2022-10-17T08:40:27.711Z,32.95
2022-10-17T08:43:52.035Z,30.75
2022-10-17T08:46:59.056Z,25.90
2022-10-17T08:50:05.525Z,24.98
2022-10-17T08:53:15.306Z,26.35
2022-10-17T08:56:44.418Z,28.17
2022-10-17T08:59:53.431Z,23.53
2022-10-17T09:03:13.868Z,23.92
2022-10-17T09:06:29.975Z,17.27
2022-10-17T09:09:40.401Z,21.83
2022-10-17T09:13:20.608Z,12.27
2022-10-17T09:16:41.403Z,14.32
2022-10-17T09:20:10.300Z,14.00
2022-10-17T09:23:25.681Z,11.38
2022-10-17T09:26:28.399Z,13.27
2022-10-17T09:29:36.941Z,8.70
2022-10-17T09:32:43.038Z,15.63
2022-10-17T09:35:45.944Z,13.05
2022-10-17T09:38:57.064Z,15.35
2022-10-17T09:42:01.519Z,14.52
2022-10-17T09:45:27.603Z,14.60
2022-10-17T09:48:42.529Z,11.27
2022-10-17T09:51:44.658Z,8.77
2022-10-17T09:54:48.225Z,12.13
2022-10-17T09:57:57.341Z,11.10
2022-10-17T10:01:21.065Z,8.18
2022-10-17T10:04:30.186Z,12.65
2022-10-17T10:07:38.568Z,9.00
2022-10-17T10:10:43.707Z,12.05
2022-10-17T10:13:47.609Z,10.05
2022-10-17T10:16:51.077Z,10.27
2022-10-17T10:19:53.597Z,10.98
2022-10-17T10:23:13.993Z,15.93
2022-10-17T10:26:49.234Z,9.90
2022-10-17T10:29:52.663Z,11.63
2022-10-17T10:32:56.259Z,10.45
2022-10-17T10:36:04.350Z,7.10
2022-10-17T10:39:08.734Z,12.25
2022-10-17T10:42:24.994Z,9.20
2022-10-17T10:45:49.144Z,9.55
2022-10-17T10:48:53.081Z,11.63
2022-10-17T10:51:56.070Z,11.65
2022-10-17T10:55:07.113Z,10.68
2022-10-17T10:58:44.008Z,9.73
2022-10-17T11:01:54.168Z,16.35
2022-10-17T11:05:10.372Z,13.77
2022-10-17T11:08:27.462Z,13.18
2022-10-17T11:11:40.705Z,11.13
2022-10-17T11:14:54.477Z,16.05
2022-10-17T11:18:18.165Z,11.15
2022-10-17T11:24:38.112Z,10.73
2022-10-17T11:27:39.936Z,8.07
2022-10-17T11:33:59.928Z,8.40
2022-10-17T11:37:14.650Z,11.75
2022-10-17T11:40:24.453Z,10.50
2022-10-17T11:43:35.942Z,11.40
2022-10-17T11:46:39.895Z,12.35
2022-10-17T11:49:51.368Z,10.60
2022-10-17T11:53:00.421Z,10.10
2022-10-17T11:56:02.994Z,7.32
2022-10-17T11:59:29.858Z,7.72
2022-10-17T12:03:00.849Z,11.88
2022-10-17T12:06:13.368Z,8.18
2022-10-17T12:09:54.180Z,10.27
2022-10-17T12:12:56.056Z,10.35
2022-10-17T12:16:31.497Z,12.55
2022-10-17T12:19:35.728Z,7.60
2022-10-17T12:22:47.553Z,7.50
2022-10-17T12:26:01.133Z,9.82
2022-10-17T12:29:29.126Z,6.25
2022-10-17T12:32:46.939Z,6.38
2022-10-17T12:36:18.933Z,7.45
2022-10-17T12:39:26.487Z,9.57
2022-10-17T12:42:33.330Z,8.38
2022-10-17T12:45:54.885Z,15.18
2022-10-17T12:49:02.024Z,12.05
2022-10-17T12:52:22.612Z,12.13
2022-10-17T12:55:25.597Z,6.25
2022-10-17T12:58:28.326Z,10.35
2022-10-17T13:01:33.026Z,12.27
2022-10-17T13:04:37.135Z,10.07
2022-10-17T13:07:42.769Z,6.55
2022-10-17T13:10:51.605Z,11.48
2022-10-17T13:13:58.161Z,9.27
2022-10-17T13:17:03.065Z,8.57
2022-10-17T13:20:23.608Z,16.88
2022-10-17T13:23:37.779Z,10.85
2022-10-17T13:26:45.964Z,8.38
2022-10-17T13:29:47.921Z,8.70
2022-10-17T13:32:50.509Z,12.85
2022-10-17T13:36:00.831Z,12.45
2022-10-17T13:39:12.172Z,10.15
2022-10-17T13:42:44.261Z,17.00
2022-10-17T13:45:50.331Z,6.82
2022-10-17T13:48:52.639Z,8.80
2022-10-17T13:51:56.228Z,14.18
2022-10-17T13:55:16.875Z,22.67
2022-10-17T13:58:19.886Z,13.80
2022-10-17T14:01:22.274Z,12.07
2022-10-17T14:04:24.457Z,13.32
2022-10-17T14:08:10.056Z,11.38
2022-10-17T14:11:18.199Z,12.65
2022-10-17T14:14:24.337Z,12.10
2022-10-17T14:17:29.341Z,8.60
2022-10-17T14:21:29.153Z,9.70
2022-10-17T14:24:26.325Z,12.82
2022-10-17T14:27:31.742Z,22.38
2022-10-17T14:30:56.685Z,19.48
2022-10-17T14:34:01.099Z,19.05
2022-10-17T14:37:09.262Z,13.70
2022-10-17T14:40:20.929Z,16.10
2022-10-17T14:43:29.015Z,10.93
2022-10-17T14:46:31.326Z,10.77
2022-10-17T14:49:39.462Z,7.93
2022-10-17T14:52:43.071Z,8.80
2022-10-17T14:55:59.543Z,15.70
2022-10-17T14:59:03.197Z,12.45
2022-10-17T15:02:05.170Z,9.18
2022-10-17T15:05:10.759Z,6.15
2022-10-17T15:08:16.635Z,8.93
2022-10-17T15:11:18.674Z,16.33
2022-10-17T15:14:20.628Z,10.30
2022-10-17T15:17:33.020Z,8.73
2022-10-17T15:20:35.122Z,11.90
2022-10-17T15:23:37.561Z,16.05
2022-10-17T15:26:39.522Z,8.27
2022-10-17T15:29:41.404Z,16.98
2022-10-17T15:32:43.274Z,13.70
2022-10-17T15:35:45.394Z,12.73
2022-10-17T15:38:48.568Z,13.95
2022-10-17T15:41:50.462Z,13.73
2022-10-17T15:44:52.463Z,16.48
2022-10-17T15:47:57.002Z,18.85
2022-10-17T15:50:58.994Z,23.02
2022-10-17T15:54:01.600Z,44.63
2022-10-17T15:57:03.758Z,53.33
2022-10-17T16:00:12.810Z,79.32
2022-10-17T16:03:17.489Z,81.70
2022-10-17T16:06:20.752Z,84.03
2022-10-17T16:09:22.668Z,96.97
2022-10-17T16:12:29.266Z,106.95
2022-10-17T16:15:31.182Z,122.32
2022-10-17T16:18:33.382Z,123.60
2022-10-17T16:21:37.553Z,126.50
2022-10-17T16:24:39.535Z,122.55
2022-10-17T16:27:41.530Z,111.47
2022-10-17T16:30:46.072Z,115.20
2022-10-17T16:33:49.540Z,146.05
2022-10-17T16:36:52.058Z,183.45
2022-10-17T16:39:54.260Z,178.53
2022-10-17T16:42:56.264Z,193.25
2022-10-17T16:45:59.022Z,152.15
2022-10-17T16:49:01.306Z,144.85
2022-10-17T16:52:03.201Z,170.13
2022-10-17T16:55:05.450Z,181.15
2022-10-17T16:58:07.360Z,177.50
2022-10-17T17:01:13.094Z,142.27
2022-10-17T17:04:15.405Z,138.18
2022-10-17T17:07:19.385Z,147.98
2022-10-17T17:10:21.280Z,133.77
2022-10-17T17:13:23.113Z,148.60
2022-10-17T17:16:27.273Z,152.23
2022-10-17T17:19:29.081Z,153.02
2022-10-17T17:22:30.963Z,128.48
2022-10-17T17:25:35.064Z,121.35
2022-10-17T17:28:38.398Z,132.38
2022-10-17T17:31:40.423Z,134.02
2022-10-17T17:34:42.294Z,164.52
2022-10-17T17:37:44.673Z,174.25
2022-10-17T17:40:50.738Z,151.73
2022-10-17T17:43:53.696Z,167.73
2022-10-17T17:46:55.573Z,174.05
2022-10-17T17:49:57.673Z,216.73
2022-10-17T17:53:00.087Z,155.48
2022-10-17T17:56:07.821Z,175.73
2022-10-17T17:59:13.489Z,146.10
2022-10-17T18:02:15.716Z,146.75
2022-10-17T18:05:19.164Z,134.43
